Seacrest, Florida
Current Conditions -  °F | °C
As of 4:53 AM on Saturday 20 Dec 2014 (Local Time) from KECP Reporting Station
Overcast Overcast  
Wind Chill: 47°   Ceiling: 6500
Heat Index: 49°   Visibility: 10mi
Dew Point: 46°   Wind: 6mph
Humidity: 90%   Direction: 30°NNE
Pressure: 30.06"   Gusts: NA
Location:  30.3525°N, 85.9093°W
Report Text: KECP 201053Z AUTO 03005KT 10SM BKN065 OVC085 09/08 A3006 RMK AO2 RAB04E13 SLP191 P0000 T00940078
Loading
Personal Weather Stations






























Interactive Weather Map New forecast layout! Learn more

10-Day Weather Forecast

Advertisements
Track Severe Weather on mobile